Hovedside
METAR-TAF:

METAR-TAF

Lufthavner :

Wellington internasjonale lufthavn

Wellington, New Zealand

breddegrad: 41-20S, lengdegrad: 174-48E, høyde over havet: 12 m

Gjeldene værobservasjon

Denne rapporten ble laget for 29 minutter siden, klokken 03:00 UTC
Vind 10 kt fra Sør
Temperatur 13°C
Luftfuktighet 67%
Trykk 1023 hPa
Sikt 10 km eller mer

METAR: NZWN 270300Z AUTO 17010KT 9999 NCD 13/07 Q1023 NOSIG

Tid: 15:29 (03:29 UTC)

Varsel

Denne rapporten ble laget for 4 timer og 27 minutter siden, klokken 23:02 UTC
Varsel gyldig fra 27. klokken 00 UTC til 28. klokken 00 UTC
Vind 15 kt fra Sør
Sikt 10 km eller mer
Spredte skyer i en høyde av 2500 ft
Blir
fra 27. klokken 10 UTC til 27. klokken 12 UTC
Vind 5 kt fra Sør-sørøst
Midlertidig
fra 27. klokken 10 UTC til 27. klokken 16 UTC
Brutte skyer i en høyde av 1400 ft

TAF: NZWN 262302Z 2700/2800 18015KT 9999 SCT025 BECMG 2710/2712 16005KT TEMPO 2710/2716 BKN014

Værobservasjoner og værvarsel for over 4000 flyplasser (METAR- og TAF-rapporter).

Tilgjengelige stasjoner er representert av de røde og gule prikkene på kartet.

Hold musepekeren over prikken for å se navnet på stasjonen.

Klikk så for å se værobservasjoner og -varsler.

For å forandre kartet kan du klikke på den grønne knappen med svart kryss for å zoome inn, på den grønne knappen med strek for å zoome ut, eller på de grønne pilene for å se tilstøtende kart.


METAR-TAF: